Waukomis, Oklahoma
Current Conditions -  °F | °C
As of 8:12 AM on Monday 22 Dec 2014 (Local Time) from KEND Reporting Station
Haze Haze  
Wind Chill: 43°   Ceiling: 2300
Heat Index: 46°   Visibility: 4mi
Dew Point: 45°   Wind: 7mph
Humidity: 93%   Direction: 270°W
Pressure: 29.57"   Gusts: NA
Location:  36.28°N, 97.9°W
Report Text: KEND 221412Z 27006KT 4SM BR SCT013 OVC023 08/07 A2957 RMK AO2A
Loading
Personal Weather Stations






























Interactive Weather Map New forecast layout! Learn more

10-Day Weather Forecast

Advertisements
Track Severe Weather on mobile